Terminal Aerodrome Forecast
Issued by NWS

Home | Current Version | Previous Version | Text Only | Print | Product List | Glossary On
Versions: 1 2 3 4 5 6 7 8 9 10 11 12 13 14 15
000
FTUS44 KCRP 191700
TAFLRD
TAF
KLRD 191731Z 1918/2018 14012KT P6SM OVC050
     FM200400 13012KT P6SM OVC035
     FM200700 13012KT P6SM OVC015
     FM201000 14010KT P6SM OVC008
     FM201500 14012KT P6SM OVC015=

USA.gov is the U.S. government's official web portal to all federal, state and local government web resources and services.